Time,TemperatureF,DewpointF,PressureIn,WindDirection,WindDirectionDegrees,WindSpeedMPH,WindSpeedGustMPH,Humidity,HourlyPrecipIn,Conditions,Clouds,dailyrainin,SoftwareType,DateUTC
2013-09-16 00:00:00,62.6,54.5,29.64,South,180,0.0,0.0,75,0.00,,,0.00,WUHU216HW,2013-09-16 04:00:00,
2013-09-16 00:01:00,62.6,54.5,29.64,South,180,0.0,0.0,75,0.00,,,0.00,WUHU216HW,2013-09-16 04:01:00,
2013-09-16 00:06:00,62.6,54.5,29.64,South,180,0.0,0.0,75,0.00,,,0.00,WUHU216HW,2013-09-16 04:06:00,
2013-09-16 00:30:00,61.9,54.3,29.63,South,180,0.0,0.0,76,0.00,,,0.00,WUHU216HW,2013-09-16 04:30:00,
2013-09-16 00:35:00,61.9,54.3,29.63,South,180,0.0,0.0,76,0.00,,,0.00,WUHU216HW,2013-09-16 04:35:00,
2013-09-16 01:00:00,61.4,53.7,29.63,South,180,0.0,0.0,76,0.00,,,0.00,WUHU216HW,2013-09-16 05:00:00,
2013-09-16 01:05:00,61.4,53.7,29.63,South,180,0.0,0.0,76,0.00,,,0.00,WUHU216HW,2013-09-16 05:05:00,
2013-09-16 01:30:00,60.8,54.4,29.63,SSE,158,0.2,0.2,79,0.00,,,0.00,WUHU216HW,2013-09-16 05:30:00,
2013-09-16 01:35:00,60.8,54.4,29.63,SSE,158,0.2,0.2,79,0.00,,,0.00,WUHU216HW,2013-09-16 05:35:00,
2013-09-16 02:00:00,61.2,54.4,29.63,SSE,158,0.0,0.0,78,0.00,,,0.00,WUHU216HW,2013-09-16 06:00:00,
2013-09-16 02:05:00,61.2,54.4,29.63,SSE,158,0.0,0.0,78,0.00,,,0.00,WUHU216HW,2013-09-16 06:05:00,
2013-09-16 02:30:00,61.6,54.6,29.62,SW,225,1.3,1.3,78,0.00,,,0.00,WUHU216HW,2013-09-16 06:30:00,
2013-09-16 02:35:00,61.6,54.6,29.62,SW,225,1.3,1.3,78,0.00,,,0.00,WUHU216HW,2013-09-16 06:35:00,
2013-09-16 03:00:00,62.8,56.2,29.61,SSW,203,0.9,0.9,79,0.00,,,0.00,WUHU216HW,2013-09-16 07:00:00,
2013-09-16 03:05:00,62.8,56.2,29.61,SSW,203,0.9,0.9,79,0.00,,,0.00,WUHU216HW,2013-09-16 07:05:00,
2013-09-16 03:30:00,63.2,56.5,29.61,SSW,203,0.0,0.0,79,0.00,,,0.00,WUHU216HW,2013-09-16 07:30:00,
2013-09-16 03:35:00,63.2,56.5,29.61,SSW,203,0.0,0.0,79,0.00,,,0.00,WUHU216HW,2013-09-16 07:35:00,
2013-09-16 04:00:00,63.0,56.3,29.60,SSE,158,2.9,2.9,79,0.00,,,0.00,WUHU216HW,2013-09-16 08:00:00,
2013-09-16 04:05:00,63.0,56.3,29.60,SSE,158,2.9,2.9,79,0.00,,,0.00,WUHU216HW,2013-09-16 08:05:00,
2013-09-16 04:30:00,62.8,56.5,29.59,SSW,203,1.8,1.8,80,0.00,,,0.00,WUHU216HW,2013-09-16 08:30:00,
2013-09-16 04:35:00,62.8,56.5,29.59,SSW,203,1.8,1.8,80,0.00,,,0.00,WUHU216HW,2013-09-16 08:35:00,
2013-09-16 05:00:00,63.4,56.7,29.59,WSW,248,2.0,2.0,79,0.00,,,0.00,WUHU216HW,2013-09-16 09:00:00,
2013-09-16 05:05:00,63.4,56.7,29.59,WSW,248,2.0,2.0,79,0.00,,,0.00,WUHU216HW,2013-09-16 09:05:00,
2013-09-16 05:30:00,63.4,56.7,29.59,South,180,3.4,3.4,79,0.00,,,0.00,WUHU216HW,2013-09-16 09:30:00,
2013-09-16 05:35:00,63.4,56.7,29.59,South,180,3.4,3.4,79,0.00,,,0.00,WUHU216HW,2013-09-16 09:35:00,
2013-09-16 06:00:00,63.7,57.4,29.60,West,270,2.5,2.5,80,0.00,,,0.00,WUHU216HW,2013-09-16 10:00:00,
2013-09-16 06:05:00,63.7,57.4,29.60,West,270,2.5,2.5,80,0.00,,,0.00,WUHU216HW,2013-09-16 10:05:00,
2013-09-16 06:30:00,64.1,57.8,29.62,ESE,113,0.9,0.9,80,0.00,,,0.00,WUHU216HW,2013-09-16 10:30:00,
2013-09-16 06:35:00,64.1,57.8,29.62,ESE,113,0.9,0.9,80,0.00,,,0.00,WUHU216HW,2013-09-16 10:35:00,
2013-09-16 07:00:00,63.4,56.3,29.65,North,0,0.4,0.4,78,0.00,,,0.00,WUHU216HW,2013-09-16 11:00:00,
2013-09-16 07:05:00,63.4,56.3,29.65,North,0,0.4,0.4,78,0.00,,,0.00,WUHU216HW,2013-09-16 11:05:00,
2013-09-16 07:30:00,62.1,56.5,29.67,ESE,113,0.4,0.4,82,0.00,,,0.00,WUHU216HW,2013-09-16 11:30:00,
2013-09-16 07:35:00,62.1,56.5,29.67,ESE,113,0.4,0.4,82,0.00,,,0.00,WUHU216HW,2013-09-16 11:35:00,
2013-09-16 08:00:00,60.5,55.6,29.67,East,90,0.2,0.2,84,0.00,,,0.00,WUHU216HW,2013-09-16 12:00:00,
2013-09-16 08:05:00,60.5,55.6,29.67,East,90,0.2,0.2,84,0.00,,,0.00,WUHU216HW,2013-09-16 12:05:00,
2013-09-16 08:30:00,59.9,55.4,29.67,East,90,0.0,0.0,85,0.00,,,0.00,WUHU216HW,2013-09-16 12:30:00,
2013-09-16 08:35:00,59.9,55.4,29.67,East,90,0.0,0.0,85,0.00,,,0.00,WUHU216HW,2013-09-16 12:35:00,
2013-09-16 09:00:00,60.3,56.2,29.69,West,270,0.7,0.7,86,0.00,,,0.00,WUHU216HW,2013-09-16 13:00:00,
2013-09-16 09:05:00,60.3,56.2,29.69,West,270,0.7,0.7,86,0.00,,,0.00,WUHU216HW,2013-09-16 13:05:00,
2013-09-16 09:30:00,60.5,56.4,29.69,SE,135,0.0,0.0,86,0.00,,,0.00,WUHU216HW,2013-09-16 13:30:00,
2013-09-16 09:35:00,60.5,56.4,29.69,SE,135,0.0,0.0,86,0.00,,,0.00,WUHU216HW,2013-09-16 13:35:00,
2013-09-16 10:00:00,60.8,56.3,29.71,WSW,248,0.0,0.0,85,0.00,,,0.00,WUHU216HW,2013-09-16 14:00:00,
2013-09-16 10:05:00,60.8,56.3,29.71,WSW,248,0.0,0.0,85,0.00,,,0.00,WUHU216HW,2013-09-16 14:05:00,
2013-09-16 10:10:00,60.8,56.3,29.71,WSW,248,0.0,0.0,85,0.00,,,0.00,WUHU216HW,2013-09-16 14:10:00,
2013-09-16 10:30:00,61.6,57.1,29.70,West,270,0.0,0.0,85,0.00,,,0.00,WUHU216HW,2013-09-16 14:30:00,
2013-09-16 10:35:00,61.6,57.1,29.70,West,270,0.0,0.0,85,0.00,,,0.00,WUHU216HW,2013-09-16 14:35:00,
2013-09-16 11:00:00,62.6,58.1,29.71,WNW,293,0.4,0.4,85,0.00,,,0.00,WUHU216HW,2013-09-16 15:00:00,
2013-09-16 11:05:00,62.6,58.1,29.71,WNW,293,0.4,0.4,85,0.00,,,0.00,WUHU216HW,2013-09-16 15:05:00,
2013-09-16 11:30:00,62.6,57.1,29.71,WSW,248,0.2,0.2,82,0.00,,,0.00,WUHU216HW,2013-09-16 15:30:00,
2013-09-16 11:35:00,62.6,57.1,29.71,WSW,248,0.2,0.2,82,0.00,,,0.00,WUHU216HW,2013-09-16 15:35:00,
2013-09-16 12:00:00,63.0,57.4,29.72,NW,315,2.7,2.7,82,0.00,,,0.00,WUHU216HW,2013-09-16 16:00:00,
2013-09-16 12:05:00,63.0,57.4,29.72,NW,315,2.7,2.7,82,0.00,,,0.00,WUHU216HW,2013-09-16 16:05:00,
2013-09-16 12:30:00,64.6,58.7,29.71,WNW,293,4.0,4.0,81,0.00,,,0.00,WUHU216HW,2013-09-16 16:30:00,
2013-09-16 12:35:00,64.6,58.7,29.71,WNW,293,4.0,4.0,81,0.00,,,0.00,WUHU216HW,2013-09-16 16:35:00,
2013-09-16 13:00:00,66.6,58.4,29.71,NW,315,3.4,3.4,75,0.00,,,0.00,WUHU216HW,2013-09-16 17:00:00,
2013-09-16 13:05:00,66.6,58.4,29.71,NW,315,3.4,3.4,75,0.00,,,0.00,WUHU216HW,2013-09-16 17:05:00,
2013-09-16 13:30:00,68.4,57.9,29.71,North,0,0.9,0.9,69,0.00,,,0.00,WUHU216HW,2013-09-16 17:30:00,
2013-09-16 13:35:00,68.4,57.9,29.71,North,0,0.9,0.9,69,0.00,,,0.00,WUHU216HW,2013-09-16 17:35:00,
2013-09-16 14:00:00,68.2,56.8,29.71,West,270,2.0,2.0,67,0.00,,,0.00,WUHU216HW,2013-09-16 18:00:00,
2013-09-16 14:05:00,68.2,56.8,29.71,West,270,2.0,2.0,67,0.00,,,0.00,WUHU216HW,2013-09-16 18:05:00,
2013-09-16 14:30:00,68.0,55.8,29.71,WSW,248,0.4,0.4,65,0.00,,,0.00,WUHU216HW,2013-09-16 18:30:00,
2013-09-16 14:35:00,68.0,55.8,29.71,WSW,248,0.4,0.4,65,0.00,,,0.00,WUHU216HW,2013-09-16 18:35:00,
2013-09-16 15:30:00,66.8,55.9,29.70,WNW,293,0.0,0.0,68,0.00,,,0.00,WUHU216HW,2013-09-16 19:30:00,
2013-09-16 15:35:00,66.8,55.9,29.70,WNW,293,0.0,0.0,68,0.00,,,0.00,WUHU216HW,2013-09-16 19:35:00,
2013-09-16 15:40:00,66.8,55.9,29.70,WNW,293,0.0,0.0,68,0.00,,,0.00,WUHU216HW,2013-09-16 19:40:00,
2013-09-16 16:00:00,67.0,56.4,29.70,WNW,293,4.0,4.0,69,0.00,,,0.00,WUHU216HW,2013-09-16 20:00:00,
2013-09-16 16:05:00,67.0,56.4,29.70,WNW,293,4.0,4.0,69,0.00,,,0.00,WUHU216HW,2013-09-16 20:05:00,
2013-09-16 16:30:00,67.7,56.4,29.69,WNW,293,2.5,2.5,67,0.00,,,0.00,WUHU216HW,2013-09-16 20:30:00,
2013-09-16 16:35:00,67.7,56.4,29.69,WNW,293,2.5,2.5,67,0.00,,,0.00,WUHU216HW,2013-09-16 20:35:00,
2013-09-16 17:00:00,72.2,58.9,29.69,North,0,1.6,1.6,63,0.00,,,0.00,WUHU216HW,2013-09-16 21:00:00,
2013-09-16 17:05:00,72.2,58.9,29.69,North,0,1.6,1.6,63,0.00,,,0.00,WUHU216HW,2013-09-16 21:05:00,
2013-09-16 17:30:00,73.3,56.5,29.69,West,270,2.2,2.2,56,0.00,,,0.00,WUHU216HW,2013-09-16 21:30:00,
2013-09-16 17:35:00,73.3,56.5,29.69,West,270,2.2,2.2,56,0.00,,,0.00,WUHU216HW,2013-09-16 21:35:00,
2013-09-16 18:00:00,73.6,57.3,29.70,WNW,293,5.1,5.1,57,0.00,,,0.00,WUHU216HW,2013-09-16 22:00:00,
2013-09-16 18:05:00,73.6,57.3,29.70,WNW,293,5.1,5.1,57,0.00,,,0.00,WUHU216HW,2013-09-16 22:05:00,
2013-09-16 18:30:00,74.3,58.1,29.70,WSW,248,1.1,1.1,57,0.00,,,0.00,WUHU216HW,2013-09-16 22:30:00,
2013-09-16 18:35:00,74.3,58.1,29.70,WSW,248,1.1,1.1,57,0.00,,,0.00,WUHU216HW,2013-09-16 22:35:00,
2013-09-16 19:00:00,71.8,56.3,29.71,West,270,0.7,0.7,58,0.00,,,0.00,WUHU216HW,2013-09-16 23:00:00,
2013-09-16 19:05:00,71.8,56.3,29.71,West,270,0.7,0.7,58,0.00,,,0.00,WUHU216HW,2013-09-16 23:05:00,
2013-09-16 19:30:00,67.7,54.6,29.71,West,270,0.0,0.0,63,0.00,,,0.00,WUHU216HW,2013-09-16 23:30:00,
2013-09-16 19:35:00,67.7,54.6,29.71,West,270,0.0,0.0,63,0.00,,,0.00,WUHU216HW,2013-09-16 23:35:00,
2013-09-16 20:00:00,65.0,54.2,29.72,West,270,0.2,0.2,68,0.00,,,0.00,WUHU216HW,2013-09-17 00:00:00,
2013-09-16 20:05:00,65.0,54.2,29.72,West,270,0.2,0.2,68,0.00,,,0.00,WUHU216HW,2013-09-17 00:05:00,
2013-09-16 20:30:00,64.3,54.7,29.73,West,270,0.0,0.0,71,0.00,,,0.00,WUHU216HW,2013-09-17 00:30:00,
2013-09-16 20:35:00,64.3,54.7,29.73,West,270,0.0,0.0,71,0.00,,,0.00,WUHU216HW,2013-09-17 00:35:00,
2013-09-16 21:00:00,62.8,54.4,29.75,West,270,0.0,0.0,74,0.00,,,0.00,WUHU216HW,2013-09-17 01:00:00,
2013-09-16 21:05:00,62.8,54.4,29.75,West,270,0.0,0.0,74,0.00,,,0.00,WUHU216HW,2013-09-17 01:05:00,
2013-09-16 21:30:00,61.2,53.3,29.76,West,270,0.0,0.0,75,0.00,,,0.00,WUHU216HW,2013-09-17 01:30:00,
2013-09-16 21:35:00,61.2,53.3,29.76,West,270,0.0,0.0,75,0.00,,,0.00,WUHU216HW,2013-09-17 01:35:00,
2013-09-16 22:00:00,60.3,52.7,29.76,West,270,0.0,0.0,76,0.00,,,0.00,WUHU216HW,2013-09-17 02:00:00,
2013-09-16 22:05:00,60.3,52.7,29.76,West,270,0.0,0.0,76,0.00,,,0.00,WUHU216HW,2013-09-17 02:05:00,
2013-09-16 22:30:00,58.9,51.7,29.77,West,270,0.0,0.0,77,0.00,,,0.00,WUHU216HW,2013-09-17 02:30:00,
2013-09-16 22:35:00,58.9,51.7,29.77,West,270,0.0,0.0,77,0.00,,,0.00,WUHU216HW,2013-09-17 02:35:00,
2013-09-16 23:00:00,58.0,51.5,29.78,NW,315,0.0,0.0,79,0.00,,,0.00,WUHU216HW,2013-09-17 03:00:00,
2013-09-16 23:05:00,58.0,51.5,29.78,NW,315,0.0,0.0,79,0.00,,,0.00,WUHU216HW,2013-09-17 03:05:00,
2013-09-16 23:30:00,56.9,50.8,29.78,NW,315,0.0,0.0,80,0.00,,,0.00,WUHU216HW,2013-09-17 03:30:00,
2013-09-16 23:35:00,56.9,50.8,29.78,NW,315,0.0,0.0,80,0.00,,,0.00,WUHU216HW,2013-09-17 03:35:00,